Time;durP1;ratioP1;P1;durP2;ratioP2;P2;SDS_P1;SDS_P2;PMS_P1;PMS_P2;Temp;Humidity;BMP_temperature;BMP_pressure;BME280_temperature;BME280_humidity;BME280_pressure;Samples;Min_cycle;Max_cycle;Signal;HPM_P1;HPM_P2
2022/03/10 00:01:22;;;;;;;4.10;2.47;;;0.10;99.90;;;;;;5065249;28;20165;-73
2022/03/10 00:03:48;;;;;;;5.22;2.60;;;0.20;99.90;;;;;;5071222;28;20701;-73
2022/03/10 00:06:14;;;;;;;5.15;2.60;;;0.30;99.90;;;;;;5088400;28;20687;-73
2022/03/10 00:08:40;;;;;;;5.88;2.58;;;0.60;99.90;;;;;;5088550;28;20278;-73
2022/03/10 00:11:06;;;;;;;6.28;3.03;;;0.70;99.90;;;;;;5087156;28;20168;-73
2022/03/10 00:13:32;;;;;;;3.65;2.40;;;0.80;99.90;;;;;;5087026;28;20203;-73
2022/03/10 00:15:59;;;;;;;8.73;2.45;;;0.70;99.90;;;;;;5088329;28;20267;-73
2022/03/10 00:18:25;;;;;;;6.35;2.75;;;0.70;99.90;;;;;;5088410;28;20172;-72
2022/03/10 00:20:52;;;;;;;3.65;2.15;;;0.60;99.90;;;;;;5087102;28;20164;-73
2022/03/10 00:23:18;;;;;;;5.20;3.10;;;0.40;99.90;;;;;;5085048;28;20200;-73
2022/03/10 00:25:44;;;;;;;5.68;2.53;;;0.20;99.90;;;;;;5086784;28;20187;-73
2022/03/10 00:28:10;;;;;;;6.57;2.65;;;0.40;99.90;;;;;;5091721;28;20157;-73
2022/03/10 00:30:36;;;;;;;6.05;2.75;;;0.30;99.90;;;;;;5091895;28;20656;-73
2022/03/10 00:33:02;;;;;;;5.03;2.28;;;0.20;99.90;;;;;;5091750;28;20208;-73
2022/03/10 00:35:28;;;;;;;3.38;1.90;;;0.10;99.90;;;;;;5091662;28;20163;-73
2022/03/10 00:37:56;;;;;;;5.20;2.72;;;0.00;99.90;;;;;;5091927;28;20243;-73
2022/03/10 00:40:22;;;;;;;4.60;2.30;;;-0.20;99.90;;;;;;5090370;28;20194;-73
2022/03/10 00:42:48;;;;;;;5.90;2.97;;;-0.20;99.90;;;;;;5091635;28;20195;-73
2022/03/10 00:45:16;;;;;;;6.00;2.75;;;-0.40;99.90;;;;;;5091585;28;20164;-73
2022/03/10 00:47:42;;;;;;;8.68;3.50;;;-0.50;99.90;;;;;;5091543;28;20153;-73
2022/03/10 00:50:09;;;;;;;5.50;3.28;;;-0.70;99.90;;;;;;5091435;28;20164;-73
2022/03/10 00:52:46;;;;;;;4.38;2.40;;;-0.50;99.90;;;;;;5091398;28;20207;-73
2022/03/10 00:55:15;;;;;;;6.97;2.75;;;-0.40;99.90;;;;;;5091474;28;20179;-73
2022/03/10 00:57:41;;;;;;;2.95;1.85;;;-0.40;99.90;;;;;;5080336;28;20164;-74
2022/03/10 01:00:08;;;;;;;6.07;2.50;;;-0.30;99.90;;;;;;5069874;28;20172;-73
2022/03/10 01:02:34;;;;;;;4.13;2.35;;;-0.30;99.90;;;;;;5071139;28;20238;-73
2022/03/10 01:05:02;;;;;;;5.75;2.00;;;0.00;99.90;;;;;;5071100;28;20224;-73
2022/03/10 01:07:27;;;;;;;3.13;1.92;;;0.30;99.90;;;;;;5071216;28;20220;-73
2022/03/10 01:09:53;;;;;;;4.35;1.88;;;0.40;99.90;;;;;;5071231;28;20168;-73
2022/03/10 01:12:19;;;;;;;3.13;2.10;;;0.40;99.90;;;;;;5070909;28;20168;-73
2022/03/10 01:14:45;;;;;;;7.40;1.90;;;0.30;99.90;;;;;;5069704;28;20165;-73
2022/03/10 01:17:11;;;;;;;5.25;2.13;;;0.20;99.90;;;;;;5070994;28;20161;-72
2022/03/10 01:19:37;;;;;;;2.75;2.22;;;0.30;99.90;;;;;;5069706;28;20165;-74
2022/03/10 01:22:03;;;;;;;4.30;1.67;;;0.20;99.90;;;;;;5069600;28;20185;-73
2022/03/10 01:24:29;;;;;;;3.65;2.08;;;0.10;99.90;;;;;;5070832;28;20192;-73
2022/03/10 01:26:55;;;;;;;5.10;1.95;;;-0.10;99.90;;;;;;5070855;28;20188;-73
2022/03/10 01:29:21;;;;;;;2.60;1.95;;;-0.10;99.90;;;;;;5070799;28;20161;-73
2022/03/10 01:31:47;;;;;;;3.53;1.80;;;-0.10;99.90;;;;;;5070784;28;20190;-74
2022/03/10 01:34:13;;;;;;;4.70;2.17;;;0.00;99.90;;;;;;5070502;28;20207;-72
2022/03/10 01:36:40;;;;;;;4.38;1.92;;;0.10;99.90;;;;;;5069339;28;20177;-73
2022/03/10 01:39:06;;;;;;;2.15;1.35;;;0.10;99.90;;;;;;5070201;28;20153;-73
2022/03/10 01:41:34;;;;;;;3.22;1.40;;;0.00;99.90;;;;;;5069234;28;20172;-73
2022/03/10 01:44:01;;;;;;;2.50;1.50;;;-0.10;99.90;;;;;;5070372;28;20220;-72
2022/03/10 01:46:28;;;;;;;4.88;2.60;;;-0.10;99.90;;;;;;5070502;28;20171;-72
2022/03/10 01:48:55;;;;;;;4.38;2.05;;;-0.10;99.90;;;;;;5070435;28;20165;-72
2022/03/10 01:51:23;;;;;;;3.13;2.10;;;-0.20;99.90;;;;;;5070085;28;20188;-72
2022/03/10 01:53:50;;;;;;;3.75;1.77;;;-0.30;99.90;;;;;;5070331;28;20188;-73
2022/03/10 01:56:20;;;;;;;5.43;2.28;;;-0.50;99.90;;;;;;5070211;28;20155;-74
2022/03/10 01:58:48;;;;;;;5.45;1.85;;;-0.60;99.90;;;;;;5070174;28;20165;-72
2022/03/10 02:01:15;;;;;;;4.03;2.17;;;-0.60;99.90;;;;;;5070056;28;20198;-73
2022/03/10 02:03:42;;;;;;;2.65;1.73;;;-0.60;99.90;;;;;;5069763;28;20291;-73
2022/03/10 02:06:10;;;;;;;3.90;1.85;;;-0.50;99.90;;;;;;5069921;28;20172;-73
2022/03/10 02:11:22;;;;;;;2.50;1.42;;;-0.70;99.90;;;;;;5069873;28;20234;-72
2022/03/10 02:13:48;;;;;;;4.25;1.63;;;-0.90;99.90;;;;;;5068474;28;20202;-73
2022/03/10 02:19:01;;;;;;;2.13;1.60;;;-1.00;99.90;;;;;;5069805;28;20156;-72
2022/03/10 02:21:27;;;;;;;2.53;1.75;;;-1.10;99.90;;;;;;5068481;28;20212;-73
2022/03/10 02:23:54;;;;;;;5.22;2.08;;;-1.00;99.90;;;;;;5068461;28;20168;-72
2022/03/10 02:26:20;;;;;;;3.90;1.80;;;-0.90;99.90;;;;;;5068493;28;20169;-72
2022/03/10 02:28:48;;;;;;;5.07;1.98;;;-0.70;99.90;;;;;;5069581;28;20165;-74
2022/03/10 02:31:14;;;;;;;2.28;1.50;;;-0.70;99.90;;;;;;5069576;28;20196;-72
2022/03/10 02:33:42;;;;;;;2.72;2.00;;;-0.70;99.90;;;;;;5068110;28;20200;-72
2022/03/10 02:36:07;;;;;;;4.55;1.80;;;-0.80;99.90;;;;;;5069539;28;20229;-73
2022/03/10 02:38:34;;;;;;;5.55;1.92;;;-0.90;99.90;;;;;;5069499;28;20176;-74
2022/03/10 02:41:00;;;;;;;7.82;2.55;;;-1.10;99.90;;;;;;5069428;28;20214;-73
2022/03/10 02:43:25;;;;;;;7.15;2.53;;;-1.20;99.90;;;;;;5068295;28;20169;-72
2022/03/10 02:45:51;;;;;;;7.85;3.45;;;-1.30;99.90;;;;;;5068419;28;20179;-74
2022/03/10 02:48:18;;;;;;;4.00;2.63;;;-1.30;99.90;;;;;;5069635;28;20164;-73
2022/03/10 02:50:45;;;;;;;4.82;2.10;;;-1.40;99.90;;;;;;5068733;28;20196;-73
2022/03/10 02:53:16;;;;;;;7.32;2.70;;;-1.40;99.90;;;;;;5069532;28;20204;-73
2022/03/10 02:55:44;;;;;;;7.70;2.92;;;-1.50;99.90;;;;;;5069469;28;20609;-73
2022/03/10 02:58:10;;;;;;;13.90;3.75;;;-1.50;99.90;;;;;;5069432;28;20183;-74
2022/03/10 03:00:36;;;;;;;7.03;2.85;;;-1.60;99.90;;;;;;5069449;28;20188;-74
2022/03/10 03:03:01;;;;;;;5.30;1.92;;;-1.60;99.90;;;;;;5069106;28;20157;-74
2022/03/10 03:05:27;;;;;;;3.60;2.17;;;-1.30;99.90;;;;;;5069378;28;20198;-74
2022/03/10 03:07:53;;;;;;;3.95;2.38;;;-0.90;99.90;;;;;;5069314;28;20171;-73
2022/03/10 03:10:19;;;;;;;5.47;1.95;;;-0.80;99.90;;;;;;5069243;28;20193;-73
2022/03/10 03:12:50;;;;;;;11.60;2.13;;;-1.00;99.90;;;;;;5069182;28;20218;-73
2022/03/10 03:15:17;;;;;;;4.80;2.63;;;-1.20;99.90;;;;;;5069337;28;20161;-73
2022/03/10 03:17:43;;;;;;;6.10;2.90;;;-1.30;99.90;;;;;;5068020;28;20181;-73
2022/03/10 03:20:14;;;;;;;6.18;2.33;;;-1.40;99.90;;;;;;5069077;28;20193;-73
2022/03/10 03:22:41;;;;;;;4.60;2.78;;;-1.50;99.90;;;;;;5069153;28;20188;-73
2022/03/10 03:25:14;;;;;;;6.07;2.15;;;-1.70;99.90;;;;;;5069061;28;20165;-73
2022/03/10 03:27:41;;;;;;;6.53;2.35;;;-1.80;99.90;;;;;;5069022;28;20655;-73
2022/03/10 03:30:08;;;;;;;2.58;2.05;;;-1.90;99.90;;;;;;5067609;28;20201;-73
2022/03/10 03:32:34;;;;;;;5.28;2.42;;;-2.00;99.90;;;;;;5068699;28;20206;-73
2022/03/10 03:35:01;;;;;;;3.25;2.58;;;-1.80;99.90;;;;;;5068931;28;20555;-73
2022/03/10 03:37:26;;;;;;;8.00;3.38;;;-1.60;99.90;;;;;;5069019;28;20160;-73
2022/03/10 03:39:52;;;;;;;9.45;2.75;;;-1.50;99.90;;;;;;5068846;28;20196;-73
2022/03/10 03:42:19;;;;;;;6.60;3.08;;;-1.40;99.90;;;;;;5068728;28;20183;-73
2022/03/10 03:44:45;;;;;;;5.18;2.42;;;-1.40;99.90;;;;;;5067589;28;20169;-73
2022/03/10 03:47:11;;;;;;;2.60;2.38;;;-1.40;99.90;;;;;;5069043;28;20184;-73
2022/03/10 03:49:37;;;;;;;3.20;1.98;;;-1.30;99.90;;;;;;5068612;28;20168;-73
2022/03/10 03:52:03;;;;;;;3.70;1.85;;;-1.10;99.90;;;;;;5068777;28;20175;-73
2022/03/10 03:54:29;;;;;;;3.33;1.75;;;-1.10;99.90;;;;;;5068611;28;20279;-73
2022/03/10 03:56:55;;;;;;;5.88;1.83;;;-1.10;99.90;;;;;;5068670;28;20148;-73
2022/03/10 03:59:21;;;;;;;3.90;2.28;;;-1.30;99.90;;;;;;5068688;28;20168;-73
2022/03/10 04:01:47;;;;;;;2.55;1.73;;;-1.50;99.90;;;;;;5071638;28;20195;-73
2022/03/10 04:04:13;;;;;;;4.38;1.85;;;-1.70;99.90;;;;;;5072421;28;20303;-73
2022/03/10 04:06:38;;;;;;;4.03;2.28;;;-1.70;99.90;;;;;;5072526;28;20157;-73
2022/03/10 04:09:04;;;;;;;3.22;1.55;;;-1.60;99.90;;;;;;5072412;28;20169;-73
2022/03/10 04:11:30;;;;;;;3.50;1.70;;;-1.50;99.90;;;;;;5070958;28;20215;-73
2022/03/10 04:13:56;;;;;;;6.38;2.00;;;-1.40;99.90;;;;;;5072457;28;20188;-73
2022/03/10 04:16:23;;;;;;;2.28;1.63;;;-1.30;99.90;;;;;;5071178;28;20582;-73
2022/03/10 04:18:49;;;;;;;5.40;1.92;;;-1.30;99.90;;;;;;5072500;28;20159;-73
2022/03/10 04:21:15;;;;;;;3.72;1.85;;;-1.20;99.90;;;;;;5072212;28;20228;-73
2022/03/10 04:23:41;;;;;;;6.55;2.63;;;-1.20;99.90;;;;;;5072258;28;20159;-73
2022/03/10 04:26:06;;;;;;;3.58;1.67;;;-1.20;99.90;;;;;;5072134;28;20199;-73
2022/03/10 04:28:33;;;;;;;3.50;2.03;;;-1.10;99.90;;;;;;5070733;28;20168;-73
2022/03/10 04:30:59;;;;;;;5.80;2.17;;;-1.10;99.90;;;;;;5072049;28;20193;-73
2022/03/10 04:33:25;;;;;;;5.10;1.77;;;-1.30;99.90;;;;;;5071928;28;20195;-73
2022/03/10 04:35:51;;;;;;;7.03;2.10;;;-1.50;99.90;;;;;;5071974;28;20238;-73
2022/03/10 04:38:17;;;;;;;3.33;1.65;;;-1.40;99.90;;;;;;5071786;28;20163;-73
2022/03/10 04:40:43;;;;;;;3.67;1.67;;;-1.20;99.90;;;;;;5070409;28;20223;-73
2022/03/10 04:43:09;;;;;;;4.32;2.13;;;-1.10;99.90;;;;;;5071731;28;20157;-73
2022/03/10 04:45:35;;;;;;;8.88;2.20;;;-1.20;99.90;;;;;;5072029;28;20165;-73
2022/03/10 04:48:02;;;;;;;4.50;1.80;;;-1.30;99.90;;;;;;5071598;28;20161;-73
2022/03/10 04:50:29;;;;;;;5.47;2.38;;;-1.30;99.90;;;;;;5071489;28;20195;-73
2022/03/10 04:52:55;;;;;;;3.30;1.60;;;-1.20;99.90;;;;;;5071696;28;20214;-73
2022/03/10 04:55:21;;;;;;;4.03;1.40;;;-1.30;99.90;;;;;;5070220;28;20200;-73
2022/03/10 04:57:47;;;;;;;6.15;1.60;;;-1.50;99.90;;;;;;5071489;28;20152;-73
2022/03/10 05:00:16;;;;;;;4.95;1.73;;;-1.70;99.90;;;;;;5069991;28;20193;-73
2022/03/10 05:02:42;;;;;;;5.65;2.33;;;-1.70;99.90;;;;;;5071384;28;20190;-73
2022/03/10 05:05:10;;;;;;;2.28;1.83;;;-1.90;99.90;;;;;;5071196;28;20270;-73
2022/03/10 05:07:36;;;;;;;3.40;2.10;;;-2.00;99.90;;;;;;5069993;28;20172;-73
2022/03/10 05:10:02;;;;;;;3.35;2.10;;;-2.10;99.90;;;;;;5069612;28;20271;-73
2022/03/10 05:12:28;;;;;;;6.43;2.60;;;-2.30;99.90;;;;;;5070314;28;20697;-73
2022/03/10 05:14:54;;;;;;;4.75;2.08;;;-2.20;99.90;;;;;;5071234;28;20161;-73
2022/03/10 05:17:21;;;;;;;3.80;2.20;;;-2.10;99.90;;;;;;5069788;28;20218;-73
2022/03/10 05:19:47;;;;;;;8.52;2.20;;;-2.00;99.90;;;;;;5071032;28;20188;-74
2022/03/10 05:22:13;;;;;;;4.45;2.33;;;-1.90;99.90;;;;;;5071063;28;20184;-73
2022/03/10 05:24:39;;;;;;;5.28;2.35;;;-1.80;99.90;;;;;;5069618;28;20173;-73
2022/03/10 05:27:04;;;;;;;6.28;2.55;;;-1.80;99.90;;;;;;5070830;28;20161;-74
2022/03/10 05:29:30;;;;;;;5.55;2.65;;;-1.80;99.90;;;;;;5070858;28;20161;-73
2022/03/10 05:31:56;;;;;;;8.57;3.47;;;-1.80;99.90;;;;;;5070763;28;20183;-73
2022/03/10 05:34:22;;;;;;;9.45;3.60;;;-1.90;99.90;;;;;;5070747;28;20193;-74
2022/03/10 05:36:48;;;;;;;5.63;3.55;;;-1.90;99.90;;;;;;5070671;28;20161;-73
2022/03/10 05:39:14;;;;;;;12.15;5.07;;;-1.90;99.90;;;;;;5070796;28;20168;-73
2022/03/10 05:41:41;;;;;;;9.07;4.90;;;-1.90;99.90;;;;;;5070728;28;20248;-73
2022/03/10 05:44:07;;;;;;;8.15;4.63;;;-1.90;99.90;;;;;;5070565;28;20161;-73
2022/03/10 05:46:32;;;;;;;8.77;4.75;;;-1.90;99.90;;;;;;5085801;28;20179;-74
2022/03/10 05:48:59;;;;;;;9.48;4.63;;;-1.90;99.90;;;;;;5069134;28;20172;-74
2022/03/10 05:51:25;;;;;;;6.32;4.50;;;-1.80;99.90;;;;;;5071390;28;20200;-74
2022/03/10 05:53:51;;;;;;;5.47;3.05;;;-1.70;99.90;;;;;;5069769;28;20195;-73
2022/03/10 05:56:18;;;;;;;8.68;4.07;;;-1.70;99.90;;;;;;5068973;28;20176;-73
2022/03/10 05:58:44;;;;;;;8.02;5.00;;;-1.60;99.90;;;;;;5068848;28;20578;-73
2022/03/10 06:01:11;;;;;;;6.45;4.57;;;-1.70;99.90;;;;;;5068635;28;20192;-73
2022/03/10 06:03:37;;;;;;;10.52;4.78;;;-1.70;99.90;;;;;;5069818;28;20224;-73
2022/03/10 06:06:03;;;;;;;7.85;4.43;;;-1.60;99.90;;;;;;5069997;28;20548;-73
2022/03/10 06:08:29;;;;;;;9.02;4.07;;;-1.60;99.90;;;;;;5069850;28;20161;-73
2022/03/10 06:10:56;;;;;;;7.25;4.32;;;-1.50;99.90;;;;;;5069723;28;20223;-74
2022/03/10 06:13:21;;;;;;;9.20;4.15;;;-1.50;99.90;;;;;;5069803;28;20196;-74
2022/03/10 06:15:47;;;;;;;13.90;4.95;;;-1.40;99.90;;;;;;5069711;28;20183;-74
2022/03/10 06:18:13;;;;;;;5.28;3.50;;;-1.40;99.90;;;;;;5069842;28;20153;-72
2022/03/10 06:20:39;;;;;;;6.90;4.70;;;-1.30;99.90;;;;;;5069720;28;20199;-73
2022/03/10 06:23:05;;;;;;;11.10;4.55;;;-1.20;99.90;;;;;;5069917;28;20195;-73
2022/03/10 06:25:31;;;;;;;7.32;4.30;;;-1.20;99.90;;;;;;5068576;28;20216;-73
2022/03/10 06:27:57;;;;;;;7.30;4.55;;;-1.10;99.90;;;;;;5068423;28;20188;-73
2022/03/10 06:30:23;;;;;;;7.22;4.50;;;-1.00;99.90;;;;;;5068375;28;20197;-73
2022/03/10 06:32:48;;;;;;;14.25;4.55;;;-1.00;99.90;;;;;;5069400;28;20188;-72
2022/03/10 06:35:14;;;;;;;6.60;4.18;;;-0.90;99.90;;;;;;5068230;28;20165;-72
2022/03/10 06:37:40;;;;;;;10.68;4.25;;;-0.80;99.90;;;;;;5069578;28;20161;-72
2022/03/10 06:40:07;;;;;;;7.88;4.65;;;-0.70;99.90;;;;;;5067786;28;20677;-73
2022/03/10 06:42:34;;;;;;;8.07;4.43;;;-0.50;99.90;;;;;;5069211;28;20175;-72
2022/03/10 06:44:59;;;;;;;6.40;3.85;;;-0.40;99.90;;;;;;5068075;28;20251;-74
2022/03/10 06:47:26;;;;;;;5.97;4.00;;;-0.30;99.90;;;;;;5068126;28;20165;-73
2022/03/10 06:49:52;;;;;;;10.05;4.43;;;-0.20;99.90;;;;;;5067933;28;20556;-73
2022/03/10 06:52:19;;;;;;;18.45;4.60;;;0.10;99.90;;;;;;5069081;28;20164;-72
2022/03/10 06:54:45;;;;;;;15.38;4.78;;;0.50;99.90;;;;;;5067655;28;20188;-72
2022/03/10 06:57:12;;;;;;;11.88;5.22;;;1.30;99.90;;;;;;5067919;28;20570;-72
2022/03/10 06:59:38;;;;;;;18.88;5.43;;;1.90;99.90;;;;;;5068644;28;20207;-74
2022/03/10 07:02:05;;;;;;;8.68;4.65;;;1.90;99.90;;;;;;5068914;28;20221;-72
2022/03/10 07:04:31;;;;;;;15.40;4.30;;;1.70;99.90;;;;;;5068801;28;20225;-73
2022/03/10 07:06:57;;;;;;;7.07;3.95;;;1.90;99.90;;;;;;5068812;28;20156;-73
2022/03/10 07:09:23;;;;;;;5.40;3.67;;;2.50;99.90;;;;;;5068961;28;20196;-73
2022/03/10 07:11:49;;;;;;;8.95;3.80;;;2.30;99.90;;;;;;5068752;28;20192;-72
2022/03/10 07:14:15;;;;;;;8.95;3.95;;;2.30;99.90;;;;;;5068792;28;20195;-73
2022/03/10 07:16:42;;;;;;;10.10;3.58;;;2.50;99.90;;;;;;5067747;28;20165;-73
2022/03/10 07:19:09;;;;;;;5.65;3.45;;;2.40;99.90;;;;;;5068773;28;20159;-73
2022/03/10 07:21:37;;;;;;;7.50;3.55;;;2.50;99.90;;;;;;5068552;28;20558;-73
2022/03/10 07:24:05;;;;;;;11.32;4.03;;;2.50;99.90;;;;;;5068793;28;20159;-73
2022/03/10 07:26:30;;;;;;;7.72;3.80;;;2.70;99.90;;;;;;5068641;28;20171;-73
2022/03/10 07:28:59;;;;;;;13.18;4.28;;;3.20;99.90;;;;;;5067502;28;20168;-73
2022/03/10 07:31:27;;;;;;;13.57;4.20;;;4.00;99.90;;;;;;5067322;28;20196;-73
2022/03/10 07:33:53;;;;;;;7.15;3.70;;;4.30;99.90;;;;;;5067233;28;20216;-73
2022/03/10 07:36:19;;;;;;;4.90;3.55;;;4.40;99.90;;;;;;5071292;28;20161;-73
2022/03/10 07:38:45;;;;;;;9.90;4.35;;;5.00;99.90;;;;;;5072705;28;20152;-73
2022/03/10 07:41:11;;;;;;;9.32;3.63;;;5.70;99.90;;;;;;5071358;28;20249;-73
2022/03/10 07:43:37;;;;;;;6.72;3.75;;;5.90;99.90;;;;;;5072685;28;20165;-73
2022/03/10 07:46:06;;;;;;;12.90;4.65;;;6.10;99.90;;;;;;5071438;28;20171;-73
2022/03/10 07:48:35;;;;;;;6.22;3.45;;;6.70;99.90;;;;;;5072741;28;20227;-73
2022/03/10 07:51:01;;;;;;;10.55;4.55;;;7.60;99.70;;;;;;5072689;28;20276;-73
2022/03/10 07:53:27;;;;;;;9.65;4.55;;;8.30;99.30;;;;;;5072457;28;20218;-74
2022/03/10 07:55:56;;;;;;;12.73;4.63;;;8.90;98.00;;;;;;5071205;28;20188;-73
2022/03/10 07:58:29;;;;;;;7.35;4.00;;;8.50;98.70;;;;;;5071254;28;20699;-73
2022/03/10 08:00:55;;;;;;;16.88;4.05;;;8.20;99.10;;;;;;5072509;28;20256;-73
2022/03/10 08:03:28;;;;;;;9.93;4.55;;;9.60;97.70;;;;;;5071112;28;20180;-73
2022/03/10 08:05:55;;;;;;;9.55;4.80;;;11.60;95.30;;;;;;5072371;28;20652;-74
2022/03/10 08:08:20;;;;;;;9.18;4.85;;;13.50;92.90;;;;;;5071016;28;20192;-73
2022/03/10 08:10:47;;;;;;;5.10;3.70;;;14.30;91.50;;;;;;5070921;28;20219;-73
2022/03/10 08:13:13;;;;;;;7.38;4.30;;;14.00;90.60;;;;;;5069075;28;20204;-73
2022/03/10 08:15:43;;;;;;;8.65;4.47;;;14.40;90.10;;;;;;5068845;28;20172;-75
2022/03/10 08:18:10;;;;;;;8.30;4.70;;;15.20;87.80;;;;;;5069031;28;20168;-73
2022/03/10 08:20:39;;;;;;;5.72;3.53;;;15.10;87.20;;;;;;5068801;28;20189;-73
2022/03/10 08:23:06;;;;;;;10.43;4.13;;;16.30;85.70;;;;;;5070272;28;20240;-73
2022/03/10 08:25:31;;;;;;;6.35;4.30;;;17.60;81.70;;;;;;5071079;28;20161;-73
2022/03/10 08:27:57;;;;;;;7.40;3.60;;;17.60;81.10;;;;;;5070796;28;20164;-73
2022/03/10 08:30:23;;;;;;;8.27;4.65;;;17.40;81.90;;;;;;5072091;28;20710;-74
2022/03/10 08:32:49;;;;;;;5.82;3.60;;;17.60;83.40;;;;;;5072056;28;20212;-73
2022/03/10 08:35:16;;;;;;;5.97;4.35;;;17.80;81.20;;;;;;5071959;28;20168;-72
2022/03/10 08:37:43;;;;;;;4.60;3.75;;;18.00;79.70;;;;;;5071920;28;20192;-72
2022/03/10 08:40:12;;;;;;;7.35;4.32;;;17.70;80.20;;;;;;5071693;28;20188;-73
2022/03/10 08:42:38;;;;;;;10.27;4.80;;;17.50;81.00;;;;;;5071679;28;20149;-72
2022/03/10 08:45:05;;;;;;;7.70;4.15;;;18.40;79.90;;;;;;5071797;28;20191;-73
2022/03/10 08:47:32;;;;;;;11.23;4.93;;;18.00;80.80;;;;;;5070365;28;20161;-72
2022/03/10 08:49:58;;;;;;;10.40;5.25;;;17.00;82.40;;;;;;5070278;28;20177;-73
2022/03/10 08:52:24;;;;;;;9.60;4.70;;;16.30;84.30;;;;;;5071628;28;20157;-73
2022/03/10 08:54:50;;;;;;;7.32;4.82;;;15.50;85.90;;;;;;5071528;28;20159;-72
2022/03/10 08:57:16;;;;;;;9.23;4.75;;;15.70;84.40;;;;;;5071567;28;20165;-73
2022/03/10 08:59:42;;;;;;;8.02;4.50;;;16.10;84.00;;;;;;5071568;28;20157;-73
2022/03/10 09:02:08;;;;;;;9.77;5.15;;;16.50;84.20;;;;;;5071403;28;20196;-73
2022/03/10 09:04:34;;;;;;;8.43;4.88;;;16.60;82.90;;;;;;5074699;28;20255;-72
2022/03/10 09:06:59;;;;;;;8.82;4.40;;;17.00;81.60;;;;;;5088528;28;20280;-72
2022/03/10 09:09:26;;;;;;;7.07;4.32;;;16.30;83.10;;;;;;5071160;28;20237;-72
2022/03/10 09:11:51;;;;;;;7.55;4.13;;;15.40;84.00;;;;;;5075822;28;20203;-72
2022/03/10 09:14:17;;;;;;;8.45;4.32;;;15.30;85.60;;;;;;5078557;28;20187;-73
2022/03/10 09:16:44;;;;;;;6.15;4.85;;;15.80;84.00;;;;;;5083695;28;20168;-70
2022/03/10 09:19:10;;;;;;;5.65;4.07;;;15.90;82.60;;;;;;5079071;28;20165;-70
2022/03/10 09:21:36;;;;;;;8.77;4.68;;;16.10;83.20;;;;;;5084872;28;20191;-70
2022/03/10 09:24:02;;;;;;;9.32;4.38;;;16.00;84.30;;;;;;5090950;28;20172;-70
2022/03/10 09:26:28;;;;;;;11.82;5.10;;;15.90;84.00;;;;;;5089725;28;20191;-71
2022/03/10 09:28:54;;;;;;;6.38;4.32;;;16.00;84.40;;;;;;5081899;28;20183;-71
2022/03/10 09:31:20;;;;;;;5.05;3.97;;;14.70;85.80;;;;;;5080645;28;20203;-71
2022/03/10 09:33:46;;;;;;;9.73;4.65;;;14.40;86.20;;;;;;5070457;28;20207;-72
2022/03/10 09:36:13;;;;;;;8.60;4.97;;;14.60;85.10;;;;;;5069317;28;20168;-73
2022/03/10 09:38:39;;;;;;;7.82;4.22;;;14.60;85.80;;;;;;5070753;28;20646;-71
2022/03/10 09:41:05;;;;;;;7.28;4.60;;;14.70;87.50;;;;;;5069305;28;20272;-73
2022/03/10 09:43:32;;;;;;;7.72;4.60;;;15.70;84.50;;;;;;5068668;28;20173;-71
2022/03/10 09:45:59;;;;;;;7.07;4.32;;;15.40;83.80;;;;;;5078103;28;20168;-71
2022/03/10 09:48:25;;;;;;;8.02;4.25;;;15.40;84.60;;;;;;5069196;28;20176;-72
2022/03/10 09:50:51;;;;;;;9.93;4.72;;;15.60;84.00;;;;;;5069159;28;20629;-73
2022/03/10 09:53:19;;;;;;;9.93;4.20;;;15.30;84.10;;;;;;5070397;28;20192;-72
2022/03/10 09:55:45;;;;;;;9.18;4.50;;;15.00;85.50;;;;;;5068533;28;20172;-73
2022/03/10 09:58:11;;;;;;;5.13;4.00;;;15.60;83.70;;;;;;5068693;28;20188;-70
2022/03/10 10:00:37;;;;;;;9.27;4.03;;;15.80;82.10;;;;;;5069942;28;20191;-69
2022/03/10 10:03:04;;;;;;;8.85;4.57;;;15.70;82.10;;;;;;5069550;28;20709;-69
2022/03/10 10:05:37;;;;;;;7.22;4.57;;;15.30;84.20;;;;;;5069577;28;20225;-69
2022/03/10 10:08:25;;;;;;;7.13;4.25;;;16.70;82.50;;;;;;5068698;28;20181;-69
2022/03/10 10:10:56;;;;;;;10.00;5.32;;;16.90;79.80;;;;;;5070344;28;20709;-70
2022/03/10 10:13:28;;;;;;;8.35;5.15;;;15.10;84.10;;;;;;5075583;28;20208;-70
2022/03/10 10:16:17;;;;;;;7.55;4.55;;;15.60;84.40;;;;;;5083239;28;20175;-70
2022/03/10 10:18:43;;;;;;;6.10;4.32;;;15.00;83.00;;;;;;5089917;28;20163;-69
2022/03/10 10:21:12;;;;;;;11.05;5.30;;;15.50;82.90;;;;;;5082064;28;20190;-70
2022/03/10 10:23:39;;;;;;;9.63;5.28;;;16.30;82.70;;;;;;5090092;28;20213;-69
2022/03/10 10:26:10;;;;;;;7.28;4.85;;;17.20;80.30;;;;;;5089956;28;20156;-70
2022/03/10 10:28:42;;;;;;;8.98;5.32;;;16.90;79.60;;;;;;5089632;28;20160;-69
2022/03/10 10:31:11;;;;;;;15.15;5.40;;;16.10;82.70;;;;;;5089737;28;20219;-69
2022/03/10 10:33:38;;;;;;;9.15;5.30;;;16.20;82.60;;;;;;5088354;28;20199;-69
2022/03/10 10:36:17;;;;;;;9.70;5.70;;;16.60;81.90;;;;;;5088813;28;20175;-72
2022/03/10 10:38:48;;;;;;;10.43;6.15;;;16.70;81.50;;;;;;5089691;28;20156;-72
2022/03/10 10:41:21;;;;;;;7.50;5.07;;;16.90;81.90;;;;;;5089514;28;20190;-72
2022/03/10 10:43:53;;;;;;;7.90;4.85;;;17.10;80.70;;;;;;5089598;28;20219;-72
2022/03/10 10:46:38;;;;;;;9.90;5.30;;;16.30;82.70;;;;;;5088136;28;20183;-72
2022/03/10 10:49:16;;;;;;;7.72;4.80;;;15.80;82.80;;;;;;5084051;28;20195;-72
2022/03/10 10:51:44;;;;;;;7.95;4.78;;;16.50;81.50;;;;;;5069246;28;20196;-72
2022/03/10 10:54:29;;;;;;;10.20;4.60;;;16.10;82.50;;;;;;5069177;28;20193;-73
2022/03/10 10:57:03;;;;;;;11.38;5.13;;;15.00;84.10;;;;;;5067924;28;20196;-72
2022/03/10 10:59:41;;;;;;;10.82;6.05;;;14.80;87.60;;;;;;5069274;28;20232;-72
2022/03/10 11:02:13;;;;;;;10.00;5.53;;;15.40;85.10;;;;;;5068957;28;20251;-72
2022/03/10 11:04:41;;;;;;;10.82;5.68;;;15.30;84.50;;;;;;5065676;28;20228;-73
2022/03/10 11:07:09;;;;;;;10.93;6.00;;;15.10;85.00;;;;;;5083905;28;20234;-72
2022/03/10 11:09:40;;;;;;;12.27;6.07;;;15.00;85.70;;;;;;5088657;28;20228;-72
2022/03/10 11:12:13;;;;;;;12.00;6.45;;;15.50;87.40;;;;;;5088652;28;20202;-73
2022/03/10 11:14:39;;;;;;;9.10;6.20;;;16.30;84.20;;;;;;5087574;28;20195;-73
2022/03/10 11:17:06;;;;;;;11.63;6.68;;;16.20;83.00;;;;;;5070297;28;20186;-72
2022/03/10 11:19:45;;;;;;;8.45;6.30;;;14.80;84.80;;;;;;5087783;28;20186;-73
2022/03/10 11:22:22;;;;;;;8.50;5.95;;;15.00;84.80;;;;;;5068716;28;20739;-73
2022/03/10 11:25:16;;;;;;;12.65;6.28;;;15.30;83.80;;;;;;5074416;28;20190;-73
2022/03/10 11:27:51;;;;;;;16.80;6.03;;;15.40;86.30;;;;;;5068813;28;20165;-73
2022/03/10 11:30:18;;;;;;;10.45;5.63;;;15.40;84.10;;;;;;5068837;28;20159;-73
2022/03/10 11:33:00;;;;;;;13.80;7.35;;;14.20;87.00;;;;;;5067529;28;20752;-73
2022/03/10 11:35:31;;;;;;;11.75;6.85;;;14.30;85.60;;;;;;5068950;28;20148;-74
2022/03/10 11:37:57;;;;;;;15.32;8.02;;;15.20;86.00;;;;;;5068872;28;20180;-73
2022/03/10 11:40:42;;;;;;;10.52;6.75;;;13.20;90.10;;;;;;5076180;28;20191;-72
2022/03/10 11:43:10;;;;;;;9.68;6.70;;;12.70;90.70;;;;;;5087351;28;20159;-74
2022/03/10 11:45:36;;;;;;;13.80;7.93;;;13.00;90.90;;;;;;5088059;28;20414;-74
2022/03/10 11:48:27;;;;;;;13.15;7.05;;;14.00;90.00;;;;;;5088923;28;20247;-74
2022/03/10 11:50:54;;;;;;;9.02;7.05;;;14.10;89.60;;;;;;5067378;28;20169;-74
2022/03/10 11:53:20;;;;;;;9.93;6.63;;;14.60;87.30;;;;;;5068736;28;20181;-73
2022/03/10 11:55:51;;;;;;;9.52;7.50;;;14.90;88.10;;;;;;5068732;28;20157;-74
2022/03/10 11:58:19;;;;;;;12.00;7.95;;;15.10;87.10;;;;;;5068681;28;20618;-74
2022/03/10 12:00:51;;;;;;;11.75;6.95;;;14.60;89.20;;;;;;5068782;28;20153;-73
2022/03/10 12:03:37;;;;;;;12.88;7.70;;;14.00;89.00;;;;;;5068533;28;20157;-74
2022/03/10 12:06:08;;;;;;;10.90;7.40;;;14.20;90.10;;;;;;5067440;28;20177;-75
2022/03/10 12:08:36;;;;;;;10.23;7.10;;;15.30;87.10;;;;;;5069196;28;20249;-75
2022/03/10 12:11:05;;;;;;;11.70;7.35;;;16.30;87.40;;;;;;5079577;28;20747;-74
2022/03/10 12:13:45;;;;;;;13.23;8.00;;;16.50;85.10;;;;;;5087808;28;20211;-74
2022/03/10 12:16:22;;;;;;;10.60;7.70;;;16.20;86.20;;;;;;5088038;28;20176;-74
2022/03/10 12:18:48;;;;;;;11.75;7.30;;;14.20;88.60;;;;;;5088575;28;20290;-74
2022/03/10 12:21:29;;;;;;;13.40;7.47;;;14.30;89.60;;;;;;5087429;28;20196;-75
2022/03/10 12:24:04;;;;;;;11.52;7.28;;;15.10;88.10;;;;;;5090348;28;20183;-73
2022/03/10 12:26:45;;;;;;;10.73;7.53;;;15.00;88.50;;;;;;5091064;28;20202;-74
2022/03/10 12:29:13;;;;;;;12.05;7.20;;;14.70;88.80;;;;;;5092158;28;20235;-74
2022/03/10 12:31:41;;;;;;;10.98;7.32;;;14.30;88.60;;;;;;5091944;28;20323;-74
2022/03/10 12:34:11;;;;;;;12.90;7.35;;;13.50;90.50;;;;;;5091486;28;20184;-74
2022/03/10 12:36:41;;;;;;;12.40;7.40;;;12.00;91.80;;;;;;5092065;28;20176;-74
2022/03/10 12:39:11;;;;;;;12.68;8.40;;;11.60;92.40;;;;;;5092018;28;20152;-74
2022/03/10 12:41:42;;;;;;;11.63;7.35;;;11.10;93.50;;;;;;5090645;28;20188;-73
2022/03/10 12:44:10;;;;;;;14.93;7.18;;;10.60;93.90;;;;;;5091280;28;20472;-74
2022/03/10 12:46:39;;;;;;;12.05;7.13;;;10.20;94.30;;;;;;5091711;28;20167;-73
2022/03/10 12:49:24;;;;;;;19.45;7.20;;;10.20;94.30;;;;;;5090236;28;20187;-74
2022/03/10 12:51:50;;;;;;;14.15;7.72;;;10.20;94.90;;;;;;5091732;28;20195;-75
2022/03/10 12:54:18;;;;;;;12.20;7.65;;;10.30;94.60;;;;;;5089885;28;20204;-74